createdAt,value
2023-02-22T00:02:10.468Z,2.60
2023-02-22T00:04:39.694Z,2.95
2023-02-22T00:07:07.136Z,2.75
2023-02-22T00:09:33.957Z,3.05
2023-02-22T00:12:01.227Z,2.60
2023-02-22T00:14:28.466Z,2.75
2023-02-22T00:16:59.909Z,3.35
2023-02-22T00:19:30.821Z,3.13
2023-02-22T00:21:58.033Z,2.95
2023-02-22T00:24:25.124Z,2.65
2023-02-22T00:26:55.793Z,2.72
2023-02-22T00:29:24.081Z,2.92
2023-02-22T00:31:51.349Z,2.58
2023-02-22T00:34:18.161Z,2.70
2023-02-22T00:36:49.592Z,2.45
2023-02-22T00:39:16.410Z,3.17
2023-02-22T00:41:43.641Z,3.30
2023-02-22T00:44:10.785Z,2.90
2023-02-22T00:46:37.914Z,2.60
2023-02-22T00:49:05.235Z,2.80
2023-02-22T00:51:33.844Z,3.10
2023-02-22T00:54:00.986Z,2.47
2023-02-22T00:56:27.827Z,2.58
2023-02-22T00:58:54.582Z,2.97
2023-02-22T01:01:21.371Z,2.42
2023-02-22T01:03:48.181Z,3.22
2023-02-22T01:06:15.535Z,3.08
2023-02-22T01:08:45.679Z,2.60
2023-02-22T01:11:13.762Z,2.88
2023-02-22T01:13:40.854Z,2.85
2023-02-22T01:16:08.330Z,3.13
2023-02-22T01:18:39.119Z,2.60
2023-02-22T01:21:06.806Z,2.72
2023-02-22T01:23:33.566Z,2.97
2023-02-22T01:26:00.340Z,2.92
2023-02-22T01:28:27.066Z,2.92
2023-02-22T01:30:56.297Z,2.95
2023-02-22T01:33:23.208Z,3.00
2023-02-22T01:35:50.906Z,2.75
2023-02-22T01:38:18.094Z,2.33
2023-02-22T01:40:50.261Z,3.03
2023-02-22T01:43:29.827Z,2.40
2023-02-22T01:46:22.739Z,3.25
2023-02-22T01:49:00.646Z,2.70
2023-02-22T01:51:52.638Z,2.40
2023-02-22T01:54:32.971Z,2.40
2023-02-22T01:57:08.048Z,2.20
2023-02-22T01:59:42.812Z,2.50
2023-02-22T02:02:10.212Z,2.25
2023-02-22T02:04:37.499Z,2.53
2023-02-22T02:07:08.730Z,2.40
2023-02-22T02:10:00.868Z,2.92
2023-02-22T02:12:32.424Z,2.47
2023-02-22T02:15:40.522Z,2.60
2023-02-22T02:18:11.979Z,2.80
2023-02-22T02:21:06.890Z,3.10
2023-02-22T02:24:03.255Z,2.78
2023-02-22T02:27:18.604Z,3.10
2023-02-22T02:30:14.378Z,2.58
2023-02-22T02:32:55.005Z,2.95
2023-02-22T02:35:43.540Z,3.00
2023-02-22T02:38:41.404Z,3.00
2023-02-22T02:41:45.362Z,3.25
2023-02-22T02:44:31.683Z,3.63
2023-02-22T02:47:12.781Z,4.32
2023-02-22T02:50:04.993Z,3.28
2023-02-22T02:52:34.224Z,2.63
2023-02-22T02:55:04.569Z,3.00
2023-02-22T02:57:31.282Z,3.30
2023-02-22T02:59:58.016Z,3.10
2023-02-22T03:03:00.182Z,3.38
2023-02-22T03:05:48.731Z,3.60
2023-02-22T03:08:48.234Z,3.13
2023-02-22T03:11:23.244Z,2.72
2023-02-22T03:14:17.830Z,3.03
2023-02-22T03:19:47.975Z,2.65
2023-02-22T03:22:36.241Z,3.53
2023-02-22T03:25:10.170Z,2.70
2023-02-22T03:30:35.929Z,3.50
2023-02-22T03:33:10.339Z,2.97
2023-02-22T03:35:56.906Z,4.05
2023-02-22T03:38:29.328Z,3.67
2023-02-22T03:41:02.157Z,4.25
2023-02-22T03:43:44.794Z,3.30
2023-02-22T03:46:14.847Z,4.10
2023-02-22T03:48:57.297Z,3.70
2023-02-22T03:51:24.947Z,2.70
2023-02-22T03:53:52.207Z,3.25
2023-02-22T03:56:35.613Z,3.40
2023-02-22T03:59:10.260Z,3.30
2023-02-22T04:01:37.456Z,3.50
2023-02-22T04:04:04.941Z,3.60
2023-02-22T04:06:32.018Z,3.15
2023-02-22T04:08:58.780Z,3.70
2023-02-22T04:11:25.756Z,3.40
2023-02-22T04:13:54.764Z,3.15
2023-02-22T04:16:21.995Z,3.25
2023-02-22T04:18:48.738Z,3.03
2023-02-22T04:21:15.805Z,3.70
2023-02-22T04:23:43.404Z,3.33
2023-02-22T04:26:10.221Z,3.10
2023-02-22T04:28:36.947Z,3.03
2023-02-22T04:31:04.325Z,3.20
2023-02-22T04:33:31.105Z,3.08
2023-02-22T04:35:57.907Z,3.22
2023-02-22T04:38:28.614Z,4.07
2023-02-22T04:40:56.097Z,4.57
2023-02-22T04:43:22.909Z,6.88
2023-02-22T04:45:49.706Z,8.45
2023-02-22T04:48:16.901Z,15.77
2023-02-22T04:50:43.640Z,11.65
2023-02-22T04:53:11.183Z,9.93
2023-02-22T04:55:38.526Z,10.43
2023-02-22T04:58:05.524Z,10.43
2023-02-22T05:00:32.334Z,8.40
2023-02-22T05:02:59.078Z,8.13
2023-02-22T05:05:25.798Z,6.00
2023-02-22T05:07:53.278Z,5.68
2023-02-22T05:10:20.756Z,6.97
2023-02-22T05:12:47.999Z,6.10
2023-02-22T05:15:20.691Z,5.45
2023-02-22T05:17:47.669Z,4.45
2023-02-22T05:20:29.867Z,5.10
2023-02-22T05:22:59.640Z,5.03
2023-02-22T05:25:27.609Z,5.63
2023-02-22T05:28:01.040Z,6.15
2023-02-22T05:30:35.436Z,5.60
2023-02-22T05:33:02.831Z,4.07
2023-02-22T05:35:29.771Z,5.00
2023-02-22T05:37:57.600Z,4.18
2023-02-22T05:40:26.657Z,4.03
2023-02-22T05:42:54.247Z,3.95
2023-02-22T05:45:25.148Z,3.80
2023-02-22T05:47:53.464Z,4.38
2023-02-22T05:50:21.739Z,4.53
2023-02-22T05:52:49.187Z,4.20
2023-02-22T05:55:20.414Z,3.80
2023-02-22T05:57:47.883Z,4.00
2023-02-22T06:00:23.206Z,4.30
2023-02-22T06:03:03.073Z,4.40
2023-02-22T06:05:30.870Z,5.10
2023-02-22T06:07:59.334Z,4.72
2023-02-22T06:10:26.768Z,4.20
2023-02-22T06:12:54.859Z,4.50
2023-02-22T06:15:23.669Z,4.78
2023-02-22T06:17:51.540Z,4.53
2023-02-22T06:20:22.677Z,3.60
2023-02-22T06:22:51.923Z,3.80
2023-02-22T06:25:23.950Z,4.47
2023-02-22T06:27:51.006Z,3.75
2023-02-22T06:30:22.159Z,3.65
2023-02-22T06:32:49.282Z,3.13
2023-02-22T06:35:17.175Z,4.13
2023-02-22T06:37:44.499Z,4.05
2023-02-22T06:40:12.917Z,3.78
2023-02-22T06:42:40.409Z,3.70
2023-02-22T06:45:08.255Z,3.35
2023-02-22T06:47:42.033Z,4.47
2023-02-22T06:50:29.424Z,3.85
2023-02-22T06:52:57.839Z,3.83
2023-02-22T06:55:28.755Z,4.20
2023-02-22T06:57:55.843Z,3.58
2023-02-22T07:00:25.375Z,4.57
2023-02-22T07:02:54.049Z,4.35
2023-02-22T07:05:23.473Z,3.72
2023-02-22T07:07:53.007Z,4.28
2023-02-22T07:10:26.401Z,5.60
2023-02-22T07:12:53.640Z,6.28
2023-02-22T07:15:24.276Z,5.00
2023-02-22T07:17:52.335Z,4.95
2023-02-22T07:20:21.098Z,4.57
2023-02-22T07:22:48.925Z,5.35
2023-02-22T07:25:16.235Z,7.10
2023-02-22T07:27:43.392Z,6.78
2023-02-22T07:30:28.047Z,6.18
2023-02-22T07:32:55.589Z,5.10
2023-02-22T07:35:29.923Z,5.70
2023-02-22T07:37:57.076Z,5.00
2023-02-22T07:40:26.580Z,5.30
2023-02-22T07:43:03.755Z,4.88
2023-02-22T07:45:34.259Z,4.97
2023-02-22T07:48:08.865Z,4.78
2023-02-22T07:50:36.497Z,4.32
2023-02-22T07:53:06.908Z,4.70
2023-02-22T07:55:34.902Z,3.97
2023-02-22T07:58:05.742Z,4.57
2023-02-22T08:00:40.467Z,4.38
2023-02-22T08:03:15.670Z,3.83
2023-02-22T08:05:49.306Z,4.25
2023-02-22T08:08:19.428Z,4.20
2023-02-22T08:10:48.409Z,4.13
2023-02-22T08:13:16.051Z,3.88
2023-02-22T08:15:47.109Z,4.50
2023-02-22T08:18:18.928Z,4.80
2023-02-22T08:20:48.723Z,4.63
2023-02-22T08:23:17.245Z,4.30
2023-02-22T08:25:44.479Z,3.78
2023-02-22T08:28:15.761Z,4.53
2023-02-22T08:30:43.706Z,3.95
2023-02-22T08:33:14.570Z,4.82
2023-02-22T08:35:42.186Z,4.32
2023-02-22T08:38:23.339Z,4.75
2023-02-22T08:40:50.786Z,4.70
2023-02-22T08:43:19.831Z,4.53
2023-02-22T08:45:48.118Z,4.50
2023-02-22T08:48:16.408Z,5.05
2023-02-22T08:50:44.264Z,4.60
2023-02-22T08:53:13.709Z,4.90
2023-02-22T08:55:41.911Z,4.43
2023-02-22T08:58:09.745Z,4.32
2023-02-22T09:00:39.148Z,3.90
2023-02-22T09:03:10.680Z,3.85
2023-02-22T09:05:37.865Z,4.65
2023-02-22T09:08:06.000Z,4.60
2023-02-22T09:10:34.754Z,5.18
2023-02-22T09:13:03.852Z,4.80
2023-02-22T09:15:32.578Z,4.35
2023-02-22T09:17:59.839Z,5.03
2023-02-22T09:20:27.806Z,4.38
2023-02-22T09:22:55.277Z,4.32
2023-02-22T09:25:23.308Z,4.95
2023-02-22T09:27:52.838Z,4.20
2023-02-22T09:30:34.695Z,4.13
2023-02-22T09:33:10.006Z,4.78
2023-02-22T09:35:42.110Z,5.25
2023-02-22T09:38:11.048Z,4.60
2023-02-22T09:40:45.181Z,3.70
2023-02-22T09:43:33.658Z,4.82
2023-02-22T09:46:20.975Z,4.72
2023-02-22T09:49:15.148Z,5.93
2023-02-22T09:52:06.664Z,4.45
2023-02-22T09:54:52.542Z,4.72
2023-02-22T09:57:37.534Z,4.30
2023-02-22T10:00:33.880Z,4.25
2023-02-22T10:03:36.475Z,3.90
2023-02-22T10:06:12.772Z,4.53
2023-02-22T10:08:40.135Z,3.97
2023-02-22T10:11:37.621Z,4.05
2023-02-22T10:14:34.504Z,3.70
2023-02-22T10:17:20.580Z,3.78
2023-02-22T10:20:38.924Z,4.00
2023-02-22T10:23:15.432Z,4.22
2023-02-22T10:25:46.043Z,4.00
2023-02-22T10:28:24.715Z,5.30
2023-02-22T10:30:59.286Z,6.07
2023-02-22T10:33:53.126Z,4.45
2023-02-22T10:36:23.704Z,4.43
2023-02-22T10:39:00.217Z,4.03
2023-02-22T10:41:38.482Z,4.00
2023-02-22T10:44:05.264Z,4.28
2023-02-22T10:46:34.536Z,5.53
2023-02-22T10:49:08.345Z,4.75
2023-02-22T10:51:35.925Z,4.20
2023-02-22T10:54:14.493Z,4.38
2023-02-22T10:56:51.169Z,4.53
2023-02-22T10:59:37.914Z,4.38
2023-02-22T11:02:16.035Z,4.10
2023-02-22T11:04:50.725Z,4.70
2023-02-22T11:07:22.515Z,4.53
2023-02-22T11:09:57.449Z,4.78
2023-02-22T11:12:32.347Z,4.03
2023-02-22T11:15:28.924Z,4.93
2023-02-22T11:17:58.834Z,4.63
2023-02-22T11:20:35.420Z,4.00
2023-02-22T11:23:05.204Z,4.03
2023-02-22T11:25:39.580Z,4.72
2023-02-22T11:28:32.932Z,4.05
2023-02-22T11:31:15.162Z,3.50
2023-02-22T11:33:52.623Z,3.28
2023-02-22T11:36:33.067Z,3.63
2023-02-22T11:39:00.976Z,2.92
2023-02-22T11:41:34.184Z,3.47
2023-02-22T11:44:27.576Z,3.47
2023-02-22T11:47:01.253Z,3.67
2023-02-22T11:49:41.308Z,3.50
2023-02-22T11:52:35.643Z,3.15
2023-02-22T11:55:41.877Z,3.30
2023-02-22T11:58:47.380Z,3.65
2023-02-22T12:01:55.482Z,3.90
2023-02-22T12:04:36.488Z,2.47
2023-02-22T12:07:27.562Z,3.42
2023-02-22T12:10:55.376Z,3.15
2023-02-22T12:13:49.015Z,3.50
2023-02-22T12:16:57.539Z,2.93
2023-02-22T12:19:36.165Z,3.28
2023-02-22T12:22:12.053Z,3.65
2023-02-22T12:24:51.619Z,4.50
2023-02-22T12:27:33.744Z,4.03
2023-02-22T12:30:26.461Z,4.57
2023-02-22T12:32:59.632Z,3.42
2023-02-22T12:35:36.192Z,3.90
2023-02-22T12:38:23.020Z,3.85
2023-02-22T12:41:15.184Z,3.65
2023-02-22T12:43:54.921Z,4.22
2023-02-22T12:46:34.791Z,4.43
2023-02-22T12:49:19.419Z,3.40
2023-02-22T12:52:12.417Z,3.83
2023-02-22T12:54:56.205Z,3.28
2023-02-22T12:57:39.148Z,4.35
2023-02-22T13:00:28.708Z,4.20
2023-02-22T13:03:20.546Z,4.22
2023-02-22T13:06:01.058Z,3.22
2023-02-22T13:08:40.683Z,4.15
2023-02-22T13:11:34.237Z,5.20
2023-02-22T13:14:35.867Z,4.40
2023-02-22T13:17:02.526Z,4.50
2023-02-22T13:19:46.193Z,3.97
2023-02-22T13:22:25.295Z,3.75
2023-02-22T13:25:27.473Z,4.43
2023-02-22T13:28:05.310Z,3.13
2023-02-22T13:30:57.290Z,4.22
2023-02-22T13:33:56.364Z,3.58
2023-02-22T13:37:27.333Z,4.13
2023-02-22T13:40:42.481Z,3.30
2023-02-22T13:46:43.204Z,3.13
2023-02-22T13:49:36.593Z,3.05
2023-02-22T13:52:19.965Z,3.78
2023-02-22T13:54:54.798Z,3.05
2023-02-22T13:57:33.697Z,3.28
2023-02-22T14:00:15.465Z,2.80
2023-02-22T14:03:34.295Z,3.42
2023-02-22T14:06:01.443Z,3.67
2023-02-22T14:08:28.098Z,3.80
2023-02-22T14:11:05.836Z,4.07
2023-02-22T14:13:53.722Z,4.03
2023-02-22T14:16:29.962Z,4.22
2023-02-22T14:19:09.106Z,3.75
2023-02-22T14:21:36.258Z,3.47
2023-02-22T14:24:13.843Z,4.22
2023-02-22T14:26:54.780Z,3.38
2023-02-22T14:29:21.941Z,3.08
2023-02-22T14:31:51.654Z,3.05
2023-02-22T14:34:46.333Z,2.95
2023-02-22T14:37:18.130Z,4.43
2023-02-22T14:40:19.205Z,5.00
2023-02-22T14:42:50.932Z,3.42
2023-02-22T14:45:33.229Z,3.38
2023-02-22T14:48:33.508Z,4.80
2023-02-22T14:51:19.250Z,3.00
2023-02-22T14:53:53.679Z,3.40
2023-02-22T14:56:28.537Z,3.20
2023-02-22T14:59:25.376Z,2.95
2023-02-22T15:02:13.376Z,2.88
2023-02-22T15:04:44.026Z,2.97
2023-02-22T15:07:27.248Z,3.33
2023-02-22T15:10:17.450Z,2.85
2023-02-22T15:13:10.612Z,3.67
2023-02-22T15:15:47.495Z,3.47
2023-02-22T15:18:27.040Z,3.72
2023-02-22T15:20:58.581Z,3.03
2023-02-22T15:23:30.398Z,3.85
2023-02-22T15:25:58.046Z,3.70
2023-02-22T15:28:30.884Z,3.25
2023-02-22T15:31:25.555Z,3.08
2023-02-22T15:33:54.649Z,3.40
2023-02-22T15:36:30.897Z,3.75
2023-02-22T15:38:57.709Z,3.20
2023-02-22T15:41:33.428Z,4.93
2023-02-22T15:44:22.735Z,4.53
2023-02-22T15:46:50.997Z,3.53
2023-02-22T15:49:23.287Z,2.92
2023-02-22T15:52:20.782Z,3.42
2023-02-22T15:54:52.731Z,4.03
2023-02-22T15:57:25.254Z,3.90
2023-02-22T15:59:57.327Z,2.88
2023-02-22T16:02:44.450Z,3.35
2023-02-22T16:05:18.420Z,2.88
2023-02-22T16:10:28.174Z,4.00
2023-02-22T16:13:32.925Z,3.65
2023-02-22T16:18:36.867Z,3.88
2023-02-22T16:21:11.907Z,5.25
2023-02-22T16:24:03.961Z,4.35
2023-02-22T16:26:37.218Z,3.65
2023-02-22T16:29:08.695Z,3.97
2023-02-22T16:31:40.353Z,4.00
2023-02-22T16:34:08.727Z,3.67
2023-02-22T16:36:49.109Z,3.88
2023-02-22T16:39:28.709Z,3.58
2023-02-22T16:42:03.236Z,3.47
2023-02-22T16:44:29.974Z,4.03
2023-02-22T16:46:59.607Z,4.78
2023-02-22T16:49:27.216Z,5.47
2023-02-22T16:52:02.626Z,4.60
2023-02-22T16:54:34.415Z,4.88
2023-02-22T16:57:04.067Z,4.95
2023-02-22T16:59:39.459Z,4.63
2023-02-22T17:02:09.691Z,4.55
2023-02-22T17:04:36.575Z,4.25
2023-02-22T17:07:05.253Z,5.32
2023-02-22T17:09:32.811Z,4.57
2023-02-22T17:12:00.225Z,4.65
2023-02-22T17:14:34.480Z,4.57
2023-02-22T17:17:01.239Z,4.05
2023-02-22T17:19:28.216Z,3.95
2023-02-22T17:21:55.075Z,4.68
2023-02-22T17:24:24.796Z,4.13
2023-02-22T17:26:54.644Z,3.58
2023-02-22T17:29:21.519Z,4.38
2023-02-22T17:31:49.098Z,4.72
2023-02-22T17:34:16.393Z,3.88
2023-02-22T17:36:43.603Z,4.40
2023-02-22T17:39:10.704Z,4.20
2023-02-22T17:41:40.335Z,4.25
2023-02-22T17:44:07.580Z,4.18
2023-02-22T17:46:36.462Z,5.00
2023-02-22T17:49:03.446Z,4.38
2023-02-22T17:51:30.316Z,4.72
2023-02-22T17:53:57.601Z,4.55
2023-02-22T17:56:24.413Z,4.32
2023-02-22T17:58:54.496Z,3.88
2023-02-22T18:01:29.748Z,4.60
2023-02-22T18:04:00.864Z,4.05
2023-02-22T18:06:30.298Z,4.15
2023-02-22T18:09:00.074Z,4.30
2023-02-22T18:11:32.507Z,3.97
2023-02-22T18:14:00.114Z,3.75
2023-02-22T18:16:27.638Z,4.35
2023-02-22T18:18:55.884Z,4.43
2023-02-22T18:21:24.376Z,4.15
2023-02-22T18:23:51.113Z,5.70
2023-02-22T18:26:20.775Z,4.07
2023-02-22T18:28:48.639Z,4.70
2023-02-22T18:31:19.289Z,4.18
2023-02-22T18:33:49.526Z,4.63
2023-02-22T18:36:22.589Z,4.50
2023-02-22T18:38:53.135Z,4.50
2023-02-22T18:41:25.917Z,4.30
2023-02-22T18:43:55.404Z,4.90
2023-02-22T18:46:24.556Z,4.38
2023-02-22T18:48:56.877Z,5.13
2023-02-22T18:51:25.512Z,4.75
2023-02-22T18:53:59.941Z,5.80
2023-02-22T18:56:31.800Z,5.05
2023-02-22T18:59:03.916Z,5.22
2023-02-22T19:01:38.511Z,5.85
2023-02-22T19:04:12.665Z,5.53
2023-02-22T19:06:39.901Z,4.75
2023-02-22T19:09:08.625Z,4.60
2023-02-22T19:11:37.003Z,4.95
2023-02-22T19:14:05.166Z,4.85
2023-02-22T19:16:32.976Z,4.10
2023-02-22T19:18:59.863Z,4.10
2023-02-22T19:21:29.304Z,4.78
2023-02-22T19:23:56.536Z,3.35
2023-02-22T19:26:26.621Z,3.92
2023-02-22T19:28:56.829Z,4.00
2023-02-22T19:31:29.690Z,4.10
2023-02-22T19:34:05.271Z,4.03
2023-02-22T19:36:32.626Z,4.03
2023-02-22T19:39:02.595Z,4.32
2023-02-22T19:41:30.379Z,4.70
2023-02-22T19:43:57.949Z,4.70
2023-02-22T19:46:25.230Z,4.57
2023-02-22T19:48:53.391Z,4.75
2023-02-22T19:51:26.169Z,4.70
2023-02-22T19:53:54.324Z,4.13
2023-02-22T19:56:29.097Z,3.90
2023-02-22T19:58:59.555Z,4.00
2023-02-22T20:01:33.188Z,4.60
2023-02-22T20:04:05.070Z,4.10
2023-02-22T20:06:40.178Z,4.50
2023-02-22T20:09:10.773Z,3.70
2023-02-22T20:11:37.720Z,4.25
2023-02-22T20:14:08.742Z,4.35
2023-02-22T20:16:35.767Z,3.90
2023-02-22T20:19:02.602Z,4.30
2023-02-22T20:21:32.786Z,3.97
2023-02-22T20:24:02.496Z,4.35
2023-02-22T20:26:31.929Z,4.68
2023-02-22T20:29:00.241Z,4.43
2023-02-22T20:31:29.264Z,4.25
2023-02-22T20:33:59.314Z,4.28
2023-02-22T20:36:29.187Z,3.70
2023-02-22T20:38:59.652Z,3.92
2023-02-22T20:41:30.207Z,3.92
2023-02-22T20:43:59.025Z,3.55
2023-02-22T20:46:28.754Z,3.85
2023-02-22T20:48:57.338Z,4.00
2023-02-22T20:51:25.356Z,4.25
2023-02-22T20:53:52.745Z,4.55
2023-02-22T20:56:23.502Z,5.18
2023-02-22T20:58:51.028Z,4.32
2023-02-22T21:01:20.569Z,4.95
2023-02-22T21:03:48.152Z,4.53
2023-02-22T21:06:17.913Z,5.50
2023-02-22T21:08:51.807Z,4.60
2023-02-22T21:13:45.924Z,4.72
2023-02-22T21:16:20.065Z,4.75
2023-02-22T21:18:49.293Z,5.00
2023-02-22T21:21:16.412Z,4.93
2023-02-22T21:23:49.630Z,4.88
2023-02-22T21:26:20.001Z,5.10
2023-02-22T21:28:53.864Z,5.15
2023-02-22T21:33:56.593Z,5.70
2023-02-22T21:36:27.124Z,5.20
2023-02-22T21:39:00.164Z,4.93
2023-02-22T21:41:31.315Z,5.83
2023-02-22T21:43:59.615Z,6.05
2023-02-22T21:46:29.257Z,5.93
2023-02-22T21:48:58.978Z,6.50
2023-02-22T21:51:32.739Z,6.68
2023-02-22T21:54:06.321Z,7.35
2023-02-22T21:56:37.726Z,7.35
2023-02-22T21:59:20.485Z,6.32
2023-02-22T22:01:55.575Z,6.38
2023-02-22T22:04:32.515Z,5.80
2023-02-22T22:07:01.427Z,6.43
2023-02-22T22:09:36.732Z,6.53
2023-02-22T22:12:06.672Z,5.88
2023-02-22T22:14:35.464Z,6.53
2023-02-22T22:17:05.776Z,6.70
2023-02-22T22:19:40.420Z,5.85
2023-02-22T22:22:08.266Z,7.00
2023-02-22T22:24:35.137Z,6.53
2023-02-22T22:27:05.549Z,6.93
2023-02-22T22:29:34.429Z,7.28
2023-02-22T22:32:02.096Z,7.00
2023-02-22T22:34:33.928Z,7.35
2023-02-22T22:37:01.288Z,7.00
2023-02-22T22:39:28.190Z,6.78
2023-02-22T22:41:55.474Z,6.07
2023-02-22T22:44:23.118Z,6.90
2023-02-22T22:46:53.565Z,7.78
2023-02-22T22:49:23.450Z,7.10
2023-02-22T22:51:50.308Z,7.53
2023-02-22T22:54:17.006Z,6.90
2023-02-22T22:56:43.794Z,7.85
2023-02-22T22:59:13.060Z,7.55
2023-02-22T23:01:44.507Z,7.22
2023-02-22T23:04:16.517Z,7.65
2023-02-22T23:06:50.652Z,7.07
2023-02-22T23:12:08.535Z,7.93
2023-02-22T23:14:44.174Z,7.45
2023-02-22T23:17:15.392Z,6.28
2023-02-22T23:19:44.859Z,7.35
2023-02-22T23:22:14.156Z,7.70
2023-02-22T23:24:44.345Z,7.72
2023-02-22T23:27:12.176Z,8.43
2023-02-22T23:29:41.634Z,8.48
2023-02-22T23:32:09.248Z,7.05
2023-02-22T23:34:38.537Z,8.50
2023-02-22T23:37:09.792Z,8.77
2023-02-22T23:39:37.137Z,7.40
2023-02-22T23:42:04.066Z,8.18
2023-02-22T23:44:31.435Z,9.00
2023-02-22T23:46:58.754Z,8.57
2023-02-22T23:49:35.519Z,8.35
2023-02-22T23:52:06.058Z,7.60
2023-02-22T23:54:36.455Z,8.13
2023-02-22T23:57:05.235Z,9.10
2023-02-22T23:59:33.485Z,8.75
